Joppa, Illinois
Current Conditions -  °F | °C
As of 9:35 PM on Friday 31 Oct 2014 (Local Time) from KM30 Reporting Station
Clear Clear  
Wind Chill: 34°   Ceiling: Unl
Heat Index: 42°   Visibility: 10mi
Dew Point: 25°   Wind: 14mph
Humidity: 51%   Direction: 340°NNW
Pressure: 30.28"   Gusts: 23mph
Location:  37.21°N, 88.84°W
Report Text: KM30 010235Z AUTO 34012G20KT 10SM CLR 05/M04 A3028 RMK AO2 T00531040
Loading
Personal Weather Stations






























Interactive Weather Map
Tropical Storm Tracking
New forecast layout! Learn more

10-Day Weather Forecast

Advertisements
Track Severe Weather on mobile